Terminal Aerodrome Forecast
Issued by NWS Wakefield, VA

Home | Current Version | Previous Version | Text Only | Print | Product List | Glossary On
Versions: 1 2 3 4 5 6 7 8 9 10 11 12 13 14 15 16 17 18 19 20 21 22 23 24 25 26 27 28 29 30 31 32 33 34
000
FTUS41 KAKQ 300106 AAA
TAFSBY
TAF AMD
KSBY 300106Z 3001/3024 07017G26KT 4SM -RA BR OVC010
      TEMPO 3001/3002 2SM +RA BR
     FM300700 06013G20KT 2SM -RA BR OVC005
     FM301000 06011KT 1 1/2SM BR VCSH OVC004
     FM301200 06010KT P6SM OVC005
     FM302100 07007KT P6SM OVC020=

USA.gov is the U.S. government's official web portal to all federal, state and local government web resources and services.